Time,TemperatureF,DewpointF,PressureIn,WindDirection,WindDirectionDegrees,WindSpeedMPH,WindSpeedGustMPH,Humidity,HourlyPrecipIn,Conditions,Clouds,dailyrainin,SoftwareType,DateUTC
2013-05-28 09:24:00,52.5,52.5,30.13,SSE,162,0.0,0.0,100,-99.99,,,-99.99,VWS V14.01,2013-05-28 13:24:00,
2013-05-28 09:25:00,52.5,52.5,30.13,SSE,162,0.0,0.0,100,-99.99,,,-99.99,VWS V14.01,2013-05-28 13:25:00,
2013-05-28 09:30:00,52.4,52.4,30.13,SSE,162,0.0,0.0,100,-99.99,,,-99.99,VWS V14.01,2013-05-28 13:30:00,
2013-05-28 09:35:00,52.5,52.5,30.13,SSE,162,0.0,0.0,100,-99.99,,,-99.99,VWS V14.01,2013-05-28 13:35:00,
2013-05-28 09:40:00,52.5,52.5,30.13,SSE,162,0.0,0.0,100,-99.99,,,-99.99,VWS V14.01,2013-05-28 13:40:00,
2013-05-28 09:45:00,52.6,52.6,30.13,SSE,162,0.0,0.0,100,-99.99,,,-99.99,VWS V14.01,2013-05-28 13:45:00,
2013-05-28 09:50:00,52.7,52.7,30.13,SSE,162,0.0,0.0,100,-99.99,,,-99.99,VWS V14.01,2013-05-28 13:50:00,
2013-05-28 09:55:00,52.6,52.6,30.13,SSE,162,0.0,0.0,100,-99.99,,,-99.99,VWS V14.01,2013-05-28 13:55:00,
2013-05-28 09:59:00,52.7,52.7,30.12,SSE,162,0.0,0.0,100,-99.99,,,-99.99,VWS V14.01,2013-05-28 13:59:00,
2013-05-28 10:04:00,52.8,52.8,30.11,SSE,162,0.0,0.0,100,-99.99,,,-99.99,VWS V14.01,2013-05-28 14:04:00,
2013-05-28 10:09:00,52.9,52.9,30.11,SSE,162,0.0,0.0,100,-99.99,,,-99.99,VWS V14.01,2013-05-28 14:09:00,
2013-05-28 10:14:00,52.9,52.9,30.11,SSE,162,0.0,0.0,100,-99.99,,,-99.99,VWS V14.01,2013-05-28 14:14:00,
2013-05-28 10:19:00,52.8,52.8,30.11,SSE,162,0.0,0.0,100,-99.99,,,-99.99,VWS V14.01,2013-05-28 14:19:00,
2013-05-28 10:24:00,52.8,52.8,30.11,SSE,162,0.0,0.0,100,-99.99,,,-99.99,VWS V14.01,2013-05-28 14:24:00,
2013-05-28 10:29:00,52.8,52.8,30.11,SSE,162,0.0,0.0,100,-99.99,,,-99.99,VWS V14.01,2013-05-28 14:29:00,
2013-05-28 10:34:00,53.1,53.1,30.11,SSE,162,0.0,0.0,100,-99.99,,,-99.99,VWS V14.01,2013-05-28 14:34:00,
2013-05-28 10:39:00,53.2,53.2,30.11,SSE,162,0.0,0.0,100,-99.99,,,-99.99,VWS V14.01,2013-05-28 14:39:00,
2013-05-28 10:44:00,53.4,53.4,30.11,SSE,162,0.0,0.0,100,-99.99,,,-99.99,VWS V14.01,2013-05-28 14:44:00,
2013-05-28 10:49:00,53.7,53.7,30.12,SSE,162,0.0,0.0,100,-99.99,,,-99.99,VWS V14.01,2013-05-28 14:49:00,
2013-05-28 10:54:00,53.8,53.8,30.12,SSE,162,0.0,0.0,100,-99.99,,,-99.99,VWS V14.01,2013-05-28 14:54:00,
2013-05-28 10:59:00,53.9,53.9,30.13,SSE,162,0.0,0.0,100,-99.99,,,-99.99,VWS V14.01,2013-05-28 14:59:00,
2013-05-28 11:04:00,54.1,54.1,30.12,SSE,162,0.0,0.0,100,-99.99,,,-99.99,VWS V14.01,2013-05-28 15:04:00,
2013-05-28 11:09:00,54.1,54.1,30.12,SSE,162,0.0,0.0,100,-99.99,,,-99.99,VWS V14.01,2013-05-28 15:09:00,
2013-05-28 11:14:00,54.2,54.2,30.12,SSE,162,0.0,0.0,100,-99.99,,,-99.99,VWS V14.01,2013-05-28 15:14:00,
2013-05-28 11:19:00,54.2,54.2,30.12,SSE,162,0.0,0.0,100,-99.99,,,-99.99,VWS V14.01,2013-05-28 15:19:00,
2013-05-28 11:24:00,54.2,54.2,30.12,SSE,162,0.0,0.0,100,-99.99,,,-99.99,VWS V14.01,2013-05-28 15:24:00,
2013-05-28 11:29:00,54.4,54.4,30.12,SSE,162,0.0,0.0,100,-99.99,,,-99.99,VWS V14.01,2013-05-28 15:29:00,
2013-05-28 11:34:00,54.6,54.6,30.11,SSE,162,0.0,0.0,100,-99.99,,,-99.99,VWS V14.01,2013-05-28 15:34:00,
2013-05-28 11:39:00,54.8,54.8,30.12,SSE,162,0.0,0.0,100,-99.99,,,-99.99,VWS V14.01,2013-05-28 15:39:00,
2013-05-28 11:44:00,54.9,54.9,30.12,SSE,162,0.0,0.0,100,-99.99,,,-99.99,VWS V14.01,2013-05-28 15:44:00,
2013-05-28 11:49:00,54.8,54.8,30.11,SSE,162,0.0,0.0,100,-99.99,,,-99.99,VWS V14.01,2013-05-28 15:49:00,
2013-05-28 11:54:00,54.7,54.7,30.12,SSE,162,0.0,0.0,100,-99.99,,,-99.99,VWS V14.01,2013-05-28 15:54:00,
2013-05-28 11:59:00,54.8,54.8,30.11,SSE,162,0.0,0.0,100,-99.99,,,-99.99,VWS V14.01,2013-05-28 15:59:00,
2013-05-28 12:04:00,55.1,55.1,30.11,SSE,162,0.0,0.0,100,-99.99,,,-99.99,VWS V14.01,2013-05-28 16:04:00,
2013-05-28 12:09:00,55.5,55.5,30.12,SSE,162,0.0,0.0,100,-99.99,,,-99.99,VWS V14.01,2013-05-28 16:09:00,
2013-05-28 12:14:00,55.8,55.8,30.12,SSE,162,0.0,0.0,100,-99.99,,,-99.99,VWS V14.01,2013-05-28 16:14:00,
2013-05-28 12:19:00,56.2,56.2,30.12,SSE,162,0.0,0.0,100,-99.99,,,-99.99,VWS V14.01,2013-05-28 16:19:00,
2013-05-28 12:24:00,56.3,56.3,30.12,SSE,162,0.0,0.0,100,-99.99,,,-99.99,VWS V14.01,2013-05-28 16:24:00,
2013-05-28 12:29:00,56.4,56.4,30.11,SSE,162,0.0,0.0,100,-99.99,,,-99.99,VWS V14.01,2013-05-28 16:29:00,
2013-05-28 12:34:00,56.4,56.4,30.12,SSE,162,0.0,0.0,100,-99.99,,,-99.99,VWS V14.01,2013-05-28 16:34:00,
2013-05-28 12:39:00,56.5,56.5,30.11,SSE,162,0.0,0.0,100,-99.99,,,-99.99,VWS V14.01,2013-05-28 16:39:00,
2013-05-28 12:44:00,56.7,56.7,30.12,SSE,162,0.0,0.0,100,-99.99,,,-99.99,VWS V14.01,2013-05-28 16:44:00,
2013-05-28 12:49:00,56.8,56.8,30.12,SSE,162,0.0,0.0,100,-99.99,,,-99.99,VWS V14.01,2013-05-28 16:49:00,
2013-05-28 12:54:00,56.8,56.8,30.12,SSE,162,0.0,0.0,100,-99.99,,,-99.99,VWS V14.01,2013-05-28 16:54:00,
2013-05-28 12:59:00,56.7,56.7,30.11,SSE,162,0.0,0.0,100,-99.99,,,-99.99,VWS V14.01,2013-05-28 16:59:00,
2013-05-28 13:04:00,56.8,56.8,30.11,SSE,162,0.0,0.0,100,-99.99,,,-99.99,VWS V14.01,2013-05-28 17:04:00,
2013-05-28 13:09:00,56.9,56.9,30.11,SSE,162,0.0,0.0,100,-99.99,,,-99.99,VWS V14.01,2013-05-28 17:09:00,
2013-05-28 13:14:00,57.0,57.0,30.11,SSE,162,0.0,0.0,100,-99.99,,,-99.99,VWS V14.01,2013-05-28 17:14:00,
2013-05-28 13:19:00,57.4,57.4,30.11,SSE,162,0.0,0.0,100,-99.99,,,-99.99,VWS V14.01,2013-05-28 17:19:00,
2013-05-28 13:24:00,58.0,58.0,30.11,SSE,162,0.0,0.0,100,-99.99,,,-99.99,VWS V14.01,2013-05-28 17:24:00,
2013-05-28 13:29:00,58.6,58.6,30.11,SSE,162,0.0,0.0,100,-99.99,,,-99.99,VWS V14.01,2013-05-28 17:29:00,
2013-05-28 13:34:00,58.9,58.9,30.10,SSE,162,0.0,0.0,100,-99.99,,,-99.99,VWS V14.01,2013-05-28 17:34:00,
2013-05-28 13:39:00,59.2,59.2,30.10,SSE,162,0.0,0.0,100,-99.99,,,-99.99,VWS V14.01,2013-05-28 17:39:00,
2013-05-28 13:44:00,59.4,59.4,30.10,SSE,162,0.0,0.0,100,-99.99,,,-99.99,VWS V14.01,2013-05-28 17:44:00,
2013-05-28 13:49:00,59.9,59.9,30.10,SSE,162,0.0,0.0,100,-99.99,,,-99.99,VWS V14.01,2013-05-28 17:49:00,
2013-05-28 13:54:00,60.3,60.3,30.10,SSE,162,0.0,0.0,100,-99.99,,,-99.99,VWS V14.01,2013-05-28 17:54:00,
2013-05-28 13:59:00,60.7,60.7,30.10,SSE,162,0.0,0.0,100,-99.99,,,-99.99,VWS V14.01,2013-05-28 17:59:00,
2013-05-28 14:04:00,61.0,61.0,30.09,SSE,162,0.0,0.0,100,-99.99,,,-99.99,VWS V14.01,2013-05-28 18:04:00,
2013-05-28 14:09:00,61.3,61.2,30.09,SSE,162,0.0,0.0,100,-99.99,,,-99.99,VWS V14.01,2013-05-28 18:09:00,
2013-05-28 14:14:00,61.8,61.8,30.09,SSE,162,0.0,0.0,100,-99.99,,,-99.99,VWS V14.01,2013-05-28 18:14:00,
2013-05-28 14:19:00,62.4,62.3,30.09,SSE,162,0.0,0.0,100,-99.99,,,-99.99,VWS V14.01,2013-05-28 18:19:00,
2013-05-28 14:24:00,62.7,62.2,30.08,SSE,162,0.0,0.0,98,-99.99,,,-99.99,VWS V14.01,2013-05-28 18:24:00,
2013-05-28 14:29:00,63.2,62.5,30.07,SSE,162,0.0,0.0,98,-99.99,,,-99.99,VWS V14.01,2013-05-28 18:29:00,
2013-05-28 14:34:00,63.8,63.0,30.07,SSE,162,0.0,0.0,97,-99.99,,,-99.99,VWS V14.01,2013-05-28 18:34:00,
2013-05-28 14:39:00,64.7,63.3,30.07,SSE,162,0.0,0.0,95,-99.99,,,-99.99,VWS V14.01,2013-05-28 18:39:00,
2013-05-28 14:44:00,65.7,64.0,30.07,SSE,162,0.0,0.0,94,-99.99,,,-99.99,VWS V14.01,2013-05-28 18:44:00,
2013-05-28 14:49:00,66.1,63.3,30.07,SSE,162,0.0,0.0,91,-99.99,,,-99.99,VWS V14.01,2013-05-28 18:49:00,
2013-05-28 14:54:00,66.4,63.2,30.07,SSE,162,0.0,0.0,89,-99.99,,,-99.99,VWS V14.01,2013-05-28 18:54:00,
2013-05-28 14:59:00,66.9,63.3,30.07,SSE,162,0.0,0.0,88,-99.99,,,-99.99,VWS V14.01,2013-05-28 18:59:00,
2013-05-28 15:04:00,66.9,63.0,30.07,SSE,162,0.0,0.0,87,-99.99,,,-99.99,VWS V14.01,2013-05-28 19:04:00,
2013-05-28 15:09:00,67.4,63.5,30.06,SSE,162,0.0,0.0,87,-99.99,,,-99.99,VWS V14.01,2013-05-28 19:09:00,
2013-05-28 15:14:00,67.5,63.6,30.07,SSE,162,0.0,0.0,87,-99.99,,,-99.99,VWS V14.01,2013-05-28 19:14:00,
2013-05-28 15:19:00,67.7,63.4,30.07,SSE,162,0.0,0.0,86,-99.99,,,-99.99,VWS V14.01,2013-05-28 19:19:00,
2013-05-28 15:24:00,68.0,64.8,30.07,SSE,162,0.0,0.0,89,-99.99,,,-99.99,VWS V14.01,2013-05-28 19:24:00,
2013-05-28 15:29:00,68.7,65.6,30.07,SSE,162,0.0,0.0,90,-99.99,,,-99.99,VWS V14.01,2013-05-28 19:29:00,
2013-05-28 15:34:00,69.0,65.2,30.07,SSE,162,0.0,0.0,88,-99.99,,,-99.99,VWS V14.01,2013-05-28 19:34:00,
2013-05-28 15:39:00,69.5,64.6,30.07,SSE,162,0.0,0.0,84,-99.99,,,-99.99,VWS V14.01,2013-05-28 19:39:00,
2013-05-28 15:44:00,69.9,64.6,30.07,SSE,162,0.0,0.0,83,-99.99,,,-99.99,VWS V14.01,2013-05-28 19:44:00,
2013-05-28 15:49:00,70.3,64.6,30.07,SSE,162,0.0,0.0,82,-99.99,,,-99.99,VWS V14.01,2013-05-28 19:49:00,
2013-05-28 15:54:00,70.5,64.8,30.09,SSE,162,0.0,0.0,82,-99.99,,,-99.99,VWS V14.01,2013-05-28 19:54:00,
2013-05-28 15:59:00,69.6,61.8,30.10,NW,308,12.9,15.5,76,-99.99,,,-99.99,VWS V14.01,2013-05-28 19:59:00,
2013-05-28 16:03:00,68.6,61.8,30.10,WNW,291,4.2,9.4,79,-99.99,,,-99.99,VWS V14.01,2013-05-28 20:03:00,
2013-05-28 16:08:00,68.0,61.7,30.09,NW,321,0.0,0.0,80,-99.99,,,-99.99,VWS V14.01,2013-05-28 20:08:00,
2013-05-28 16:13:00,67.6,62.4,30.09,NW,321,0.0,0.0,83,-99.99,,,-99.99,VWS V14.01,2013-05-28 20:13:00,
2013-05-28 16:18:00,67.2,62.4,30.09,NW,321,0.0,0.0,85,-99.99,,,-99.99,VWS V14.01,2013-05-28 20:18:00,
2013-05-28 16:23:00,67.0,62.6,30.09,ENE,66,0.0,0.0,86,-99.99,,,-99.99,VWS V14.01,2013-05-28 20:23:00,
2013-05-28 16:28:00,66.8,63.0,30.09,ESE,118,0.0,0.0,88,-99.99,,,-99.99,VWS V14.01,2013-05-28 20:28:00,
2013-05-28 16:33:00,66.3,62.9,30.09,ESE,118,0.0,0.0,89,-99.99,,,-99.99,VWS V14.01,2013-05-28 20:33:00,
2013-05-28 16:38:00,66.3,63.4,30.09,ESE,118,0.0,0.0,90,-99.99,,,-99.99,VWS V14.01,2013-05-28 20:38:00,
2013-05-28 16:43:00,66.5,63.9,30.09,ESE,118,0.0,0.0,91,-99.99,,,-99.99,VWS V14.01,2013-05-28 20:43:00,
2013-05-28 16:48:00,66.5,63.8,30.09,ESE,115,3.2,3.3,91,-99.99,,,-99.99,VWS V14.01,2013-05-28 20:48:00,
2013-05-28 16:53:00,66.7,63.9,30.08,East,101,0.0,0.0,91,-99.99,,,-99.99,VWS V14.01,2013-05-28 20:53:00,
2013-05-28 16:58:00,66.7,63.7,30.08,ESE,112,5.3,6.8,90,-99.99,,,-99.99,VWS V14.01,2013-05-28 20:58:00,
2013-05-28 17:03:00,66.9,63.9,30.08,East,89,0.0,0.0,90,-99.99,,,-99.99,VWS V14.01,2013-05-28 21:03:00,
2013-05-28 17:08:00,67.0,63.2,30.08,East,89,0.0,0.0,88,-99.99,,,-99.99,VWS V14.01,2013-05-28 21:08:00,
2013-05-28 17:13:00,67.2,63.3,30.08,ESE,110,3.4,3.4,87,-99.99,,,-99.99,VWS V14.01,2013-05-28 21:13:00,
2013-05-28 17:18:00,67.4,63.5,30.08,ESE,122,0.0,0.0,87,-99.99,,,-99.99,VWS V14.01,2013-05-28 21:18:00,
2013-05-28 17:23:00,67.7,63.4,30.07,East,91,3.0,3.2,86,-99.99,,,-99.99,VWS V14.01,2013-05-28 21:23:00,
2013-05-28 17:28:00,68.0,63.3,30.07,ESE,103,0.0,0.0,85,-99.99,,,-99.99,VWS V14.01,2013-05-28 21:28:00,
2013-05-28 17:33:00,68.2,63.6,30.07,ESE,103,0.0,0.0,85,-99.99,,,-99.99,VWS V14.01,2013-05-28 21:33:00,
2013-05-28 17:38:00,68.5,63.5,30.07,ESE,103,0.0,0.0,84,-99.99,,,-99.99,VWS V14.01,2013-05-28 21:38:00,
2013-05-28 17:43:00,68.9,63.9,30.07,East,94,0.0,0.0,84,-99.99,,,-99.99,VWS V14.01,2013-05-28 21:43:00,
2013-05-28 17:48:00,69.1,63.9,30.07,East,94,0.0,0.0,83,-99.99,,,-99.99,VWS V14.01,2013-05-28 21:48:00,
2013-05-28 17:53:00,69.4,64.0,30.07,East,94,0.0,0.0,83,-99.99,,,-99.99,VWS V14.01,2013-05-28 21:53:00,
2013-05-28 17:58:00,69.5,63.9,30.06,East,98,0.0,0.0,82,-99.99,,,-99.99,VWS V14.01,2013-05-28 21:58:00,
2013-05-28 18:03:00,69.8,64.1,30.06,East,98,0.0,0.0,82,-99.99,,,-99.99,VWS V14.01,2013-05-28 22:03:00,
2013-05-28 18:08:00,69.9,64.2,30.06,East,98,0.0,0.0,82,-99.99,,,-99.99,VWS V14.01,2013-05-28 22:08:00,
2013-05-28 18:13:00,70.0,64.4,30.05,East,98,0.0,0.0,82,-99.99,,,-99.99,VWS V14.01,2013-05-28 22:13:00,
2013-05-28 18:18:00,70.2,64.8,30.05,East,98,0.0,0.0,83,-99.99,,,-99.99,VWS V14.01,2013-05-28 22:18:00,
2013-05-28 18:23:00,70.4,64.7,30.05,East,98,0.0,0.0,82,-99.99,,,-99.99,VWS V14.01,2013-05-28 22:23:00,
2013-05-28 18:28:00,70.5,64.7,30.04,ESE,108,0.0,0.0,82,-99.99,,,-99.99,VWS V14.01,2013-05-28 22:28:00,
2013-05-28 18:33:00,70.8,64.8,30.04,ESE,115,0.0,0.0,81,-99.99,,,-99.99,VWS V14.01,2013-05-28 22:33:00,
2013-05-28 18:38:00,71.1,65.4,30.04,ESE,115,0.0,0.0,82,-99.99,,,-99.99,VWS V14.01,2013-05-28 22:38:00,
2013-05-28 18:43:00,71.2,65.7,30.04,ESE,115,0.0,0.0,83,-99.99,,,-99.99,VWS V14.01,2013-05-28 22:43:00,
2013-05-28 18:48:00,71.1,65.5,30.04,ESE,115,0.0,0.0,83,-99.99,,,-99.99,VWS V14.01,2013-05-28 22:48:00,
2013-05-28 18:53:00,71.1,65.4,30.04,ESE,115,0.0,0.0,82,-99.99,,,-99.99,VWS V14.01,2013-05-28 22:53:00,
2013-05-28 18:58:00,71.1,65.8,30.04,ESE,115,0.0,0.0,83,-99.99,,,-99.99,VWS V14.01,2013-05-28 22:58:00,
2013-05-28 19:03:00,71.1,65.9,30.03,ESE,115,0.0,0.0,84,-99.99,,,-99.99,VWS V14.01,2013-05-28 23:03:00,
2013-05-28 19:08:00,70.9,66.0,30.04,ESE,115,0.0,0.0,84,-99.99,,,-99.99,VWS V14.01,2013-05-28 23:08:00,
2013-05-28 19:13:00,70.6,65.8,30.04,ESE,115,0.0,0.0,85,-99.99,,,-99.99,VWS V14.01,2013-05-28 23:13:00,
2013-05-28 19:18:00,70.5,66.1,30.04,ESE,115,0.0,0.0,86,-99.99,,,-99.99,VWS V14.01,2013-05-28 23:18:00,
2013-05-28 19:23:00,70.5,66.3,30.04,ESE,115,0.0,0.0,86,-99.99,,,-99.99,VWS V14.01,2013-05-28 23:23:00,
2013-05-28 19:28:00,70.4,66.2,30.04,ESE,115,0.0,0.0,87,-99.99,,,-99.99,VWS V14.01,2013-05-28 23:28:00,
2013-05-28 19:33:00,70.3,66.3,30.04,ESE,115,0.0,0.0,87,-99.99,,,-99.99,VWS V14.01,2013-05-28 23:33:00,
2013-05-28 19:38:00,70.1,66.1,30.05,ESE,115,0.0,0.0,87,-99.99,,,-99.99,VWS V14.01,2013-05-28 23:38:00,
2013-05-28 19:43:00,70.0,66.2,30.05,ESE,115,0.0,0.0,88,-99.99,,,-99.99,VWS V14.01,2013-05-28 23:43:00,
2013-05-28 19:48:00,69.8,66.2,30.05,ESE,115,0.0,0.0,88,-99.99,,,-99.99,VWS V14.01,2013-05-28 23:48:00,
2013-05-28 19:53:00,69.6,66.2,30.06,ESE,115,0.0,0.0,89,-99.99,,,-99.99,VWS V14.01,2013-05-28 23:53:00,
2013-05-28 19:58:00,69.2,65.9,30.06,ESE,115,0.0,0.0,89,-99.99,,,-99.99,VWS V14.01,2013-05-28 23:58:00,
2013-05-28 20:03:00,69.0,66.1,30.06,ESE,115,0.0,0.0,90,-99.99,,,-99.99,VWS V14.01,2013-05-29 00:03:00,
2013-05-28 20:08:00,68.7,66.0,30.06,ESE,115,0.0,0.0,91,-99.99,,,-99.99,VWS V14.01,2013-05-29 00:08:00,
2013-05-28 20:13:00,68.4,65.9,30.06,ESE,115,0.0,0.0,92,-99.99,,,-99.99,VWS V14.01,2013-05-29 00:13:00,
2013-05-28 20:18:00,68.0,65.7,30.06,ESE,115,0.0,0.0,92,-99.99,,,-99.99,VWS V14.01,2013-05-29 00:18:00,
2013-05-28 20:23:00,67.6,65.5,30.07,ESE,115,0.0,0.0,93,-99.99,,,-99.99,VWS V14.01,2013-05-29 00:23:00,
2013-05-28 20:28:00,67.4,65.6,30.07,ESE,115,0.0,0.0,94,-99.99,,,-99.99,VWS V14.01,2013-05-29 00:28:00,
2013-05-28 20:33:00,67.0,65.3,30.07,ESE,115,0.0,0.0,94,-99.99,,,-99.99,VWS V14.01,2013-05-29 00:33:00,
2013-05-28 20:38:00,66.9,65.3,30.07,ESE,115,0.0,0.0,95,-99.99,,,-99.99,VWS V14.01,2013-05-29 00:38:00,
2013-05-28 20:43:00,66.8,65.3,30.06,ESE,115,0.0,0.0,95,-99.99,,,-99.99,VWS V14.01,2013-05-29 00:43:00,
2013-05-28 20:48:00,66.5,65.1,30.06,ESE,115,0.0,0.0,95,-99.99,,,-99.99,VWS V14.01,2013-05-29 00:48:00,
2013-05-28 20:53:00,66.3,65.0,30.07,ESE,115,0.0,0.0,96,-99.99,,,-99.99,VWS V14.01,2013-05-29 00:53:00,
2013-05-28 20:58:00,66.1,64.9,30.07,ESE,115,0.0,0.0,96,-99.99,,,-99.99,VWS V14.01,2013-05-29 00:58:00,
2013-05-28 21:03:00,66.0,64.9,30.07,ESE,115,0.0,0.0,96,-99.99,,,-99.99,VWS V14.01,2013-05-29 01:03:00,
2013-05-28 21:08:00,65.6,64.6,30.07,ESE,115,0.0,0.0,96,-99.99,,,-99.99,VWS V14.01,2013-05-29 01:08:00,
2013-05-28 21:13:00,65.4,64.5,30.06,ESE,115,0.0,0.0,97,-99.99,,,-99.99,VWS V14.01,2013-05-29 01:13:00,
2013-05-28 21:18:00,65.1,64.3,30.06,ESE,115,0.0,0.0,97,-99.99,,,-99.99,VWS V14.01,2013-05-29 01:18:00,
2013-05-28 21:23:00,64.9,64.2,30.06,ESE,115,0.0,0.0,98,-99.99,,,-99.99,VWS V14.01,2013-05-29 01:23:00,
2013-05-28 21:28:00,64.7,64.0,30.07,ESE,115,0.0,0.0,98,-99.99,,,-99.99,VWS V14.01,2013-05-29 01:28:00,
2013-05-28 21:33:00,64.6,64.0,30.07,ESE,115,0.0,0.0,98,-99.99,,,-99.99,VWS V14.01,2013-05-29 01:33:00,
2013-05-28 21:38:00,64.4,63.9,30.07,ESE,115,0.0,0.0,98,-99.99,,,-99.99,VWS V14.01,2013-05-29 01:38:00,
2013-05-28 21:43:00,64.3,63.8,30.07,ESE,115,0.0,0.0,98,-99.99,,,-99.99,VWS V14.01,2013-05-29 01:43:00,
2013-05-28 21:48:00,64.1,63.7,30.08,ESE,115,0.0,0.0,99,-99.99,,,-99.99,VWS V14.01,2013-05-29 01:48:00,
2013-05-28 21:53:00,63.9,63.6,30.08,ESE,115,0.0,0.0,99,-99.99,,,-99.99,VWS V14.01,2013-05-29 01:53:00,
2013-05-28 21:58:00,63.6,63.3,30.08,ESE,115,0.0,0.0,99,-99.99,,,-99.99,VWS V14.01,2013-05-29 01:58:00,
2013-05-28 22:03:00,63.4,63.2,30.08,ESE,115,0.0,0.0,99,-99.99,,,-99.99,VWS V14.01,2013-05-29 02:03:00,
2013-05-28 22:08:00,63.2,63.0,30.08,ESE,115,0.0,0.0,99,-99.99,,,-99.99,VWS V14.01,2013-05-29 02:08:00,
2013-05-28 22:13:00,63.1,62.9,30.08,ESE,115,0.0,0.0,99,-99.99,,,-99.99,VWS V14.01,2013-05-29 02:13:00,
2013-05-28 22:18:00,62.9,62.8,30.09,ESE,115,0.0,0.0,100,-99.99,,,-99.99,VWS V14.01,2013-05-29 02:18:00,
2013-05-28 22:23:00,62.8,62.8,30.09,ESE,115,0.0,0.0,100,-99.99,,,-99.99,VWS V14.01,2013-05-29 02:23:00,
2013-05-28 22:28:00,62.6,62.6,30.09,ESE,115,0.0,0.0,100,-99.99,,,-99.99,VWS V14.01,2013-05-29 02:28:00,
2013-05-28 22:32:00,62.4,62.4,30.09,ESE,115,0.0,0.0,100,-99.99,,,-99.99,VWS V14.01,2013-05-29 02:32:00,
2013-05-28 22:37:00,62.3,62.3,30.09,ESE,115,0.0,0.0,100,-99.99,,,-99.99,VWS V14.01,2013-05-29 02:37:00,
2013-05-28 22:42:00,62.2,62.2,30.08,ESE,115,0.0,0.0,100,-99.99,,,-99.99,VWS V14.01,2013-05-29 02:42:00,
2013-05-28 22:47:00,62.1,62.1,30.08,ESE,115,0.0,0.0,100,-99.99,,,-99.99,VWS V14.01,2013-05-29 02:47:00,
2013-05-28 22:52:00,62.1,62.1,30.08,ESE,115,0.0,0.0,100,-99.99,,,-99.99,VWS V14.01,2013-05-29 02:52:00,
2013-05-28 22:57:00,61.9,61.9,30.08,ESE,115,0.0,0.0,100,-99.99,,,-99.99,VWS V14.01,2013-05-29 02:57:00,
2013-05-28 23:02:00,61.7,61.7,30.08,ESE,115,0.0,0.0,100,-99.99,,,-99.99,VWS V14.01,2013-05-29 03:02:00,